sensor_id;sensor_type;location;lat;lon;timestamp;temperature;humidity
3996;DHT22;2012;49.794;9.722;2023-02-02T00:00:59;6.10;99.90
3996;DHT22;2012;49.794;9.722;2023-02-02T00:03:26;6.10;99.90
3996;DHT22;2012;49.794;9.722;2023-02-02T00:05:53;6.10;99.90
3996;DHT22;2012;49.794;9.722;2023-02-02T00:08:20;6.10;99.90
3996;DHT22;2012;49.794;9.722;2023-02-02T00:10:47;6.10;99.90
3996;DHT22;2012;49.794;9.722;2023-02-02T00:13:16;6.10;99.90
3996;DHT22;2012;49.794;9.722;2023-02-02T00:15:43;6.10;99.90
3996;DHT22;2012;49.794;9.722;2023-02-02T00:18:09;6.20;99.90
3996;DHT22;2012;49.794;9.722;2023-02-02T00:20:36;6.20;99.90
3996;DHT22;2012;49.794;9.722;2023-02-02T00:23:03;6.10;99.90
3996;DHT22;2012;49.794;9.722;2023-02-02T00:25:30;6.20;99.90
3996;DHT22;2012;49.794;9.722;2023-02-02T00:27:57;6.20;99.90
3996;DHT22;2012;49.794;9.722;2023-02-02T00:30:24;6.20;99.90
3996;DHT22;2012;49.794;9.722;2023-02-02T00:32:50;6.20;99.90
3996;DHT22;2012;49.794;9.722;2023-02-02T00:35:19;6.20;99.90
3996;DHT22;2012;49.794;9.722;2023-02-02T00:37:46;6.20;99.90
3996;DHT22;2012;49.794;9.722;2023-02-02T00:40:13;6.20;99.90
3996;DHT22;2012;49.794;9.722;2023-02-02T00:42:39;6.20;99.90
3996;DHT22;2012;49.794;9.722;2023-02-02T00:45:06;6.20;99.90
3996;DHT22;2012;49.794;9.722;2023-02-02T00:47:44;6.20;99.90
3996;DHT22;2012;49.794;9.722;2023-02-02T00:50:17;6.20;99.90
3996;DHT22;2012;49.794;9.722;2023-02-02T00:52:47;6.20;99.90
3996;DHT22;2012;49.794;9.722;2023-02-02T00:55:15;6.20;99.90
3996;DHT22;2012;49.794;9.722;2023-02-02T00:57:42;6.20;99.90
3996;DHT22;2012;49.794;9.722;2023-02-02T01:00:15;6.20;99.90
3996;DHT22;2012;49.794;9.722;2023-02-02T01:02:43;6.20;99.90
3996;DHT22;2012;49.794;9.722;2023-02-02T01:05:11;6.20;99.90
3996;DHT22;2012;49.794;9.722;2023-02-02T01:07:38;6.20;99.90
3996;DHT22;2012;49.794;9.722;2023-02-02T01:10:07;6.20;99.90
3996;DHT22;2012;49.794;9.722;2023-02-02T01:12:34;6.20;99.90
3996;DHT22;2012;49.794;9.722;2023-02-02T01:15:01;6.20;99.90
3996;DHT22;2012;49.794;9.722;2023-02-02T01:17:28;6.20;99.90
3996;DHT22;2012;49.794;9.722;2023-02-02T01:19:55;6.20;99.90
3996;DHT22;2012;49.794;9.722;2023-02-02T01:22:22;6.20;99.90
3996;DHT22;2012;49.794;9.722;2023-02-02T01:24:48;6.20;99.90
3996;DHT22;2012;49.794;9.722;2023-02-02T01:27:15;6.10;99.90
3996;DHT22;2012;49.794;9.722;2023-02-02T01:29:42;6.20;99.90
3996;DHT22;2012;49.794;9.722;2023-02-02T01:32:10;6.20;99.90
3996;DHT22;2012;49.794;9.722;2023-02-02T01:34:37;6.20;99.90
3996;DHT22;2012;49.794;9.722;2023-02-02T01:37:07;6.20;99.90
3996;DHT22;2012;49.794;9.722;2023-02-02T01:39:35;6.20;99.90
3996;DHT22;2012;49.794;9.722;2023-02-02T01:42:03;6.20;99.90
3996;DHT22;2012;49.794;9.722;2023-02-02T01:47:21;6.20;99.90
3996;DHT22;2012;49.794;9.722;2023-02-02T01:49:48;6.20;99.90
3996;DHT22;2012;49.794;9.722;2023-02-02T01:52:17;6.20;99.90
3996;DHT22;2012;49.794;9.722;2023-02-02T01:54:48;6.20;99.90
3996;DHT22;2012;49.794;9.722;2023-02-02T01:57:23;6.20;99.90
3996;DHT22;2012;49.794;9.722;2023-02-02T01:59:52;6.30;99.90
3996;DHT22;2012;49.794;9.722;2023-02-02T02:02:20;6.30;99.90
3996;DHT22;2012;49.794;9.722;2023-02-02T02:04:49;6.30;99.90
3996;DHT22;2012;49.794;9.722;2023-02-02T02:07:16;6.30;99.90
3996;DHT22;2012;49.794;9.722;2023-02-02T02:09:42;6.30;99.90
3996;DHT22;2012;49.794;9.722;2023-02-02T02:12:13;6.20;99.90
3996;DHT22;2012;49.794;9.722;2023-02-02T02:14:42;6.20;99.90
3996;DHT22;2012;49.794;9.722;2023-02-02T02:32:31;6.10;99.90
3996;DHT22;2012;49.794;9.722;2023-02-02T02:35:04;6.10;99.90
3996;DHT22;2012;49.794;9.722;2023-02-02T02:37:48;6.00;99.90
3996;DHT22;2012;49.794;9.722;2023-02-02T02:42:58;6.00;99.90
3996;DHT22;2012;49.794;9.722;2023-02-02T02:45:26;6.00;99.90
3996;DHT22;2012;49.794;9.722;2023-02-02T02:47:54;5.90;99.90
3996;DHT22;2012;49.794;9.722;2023-02-02T02:50:21;5.90;99.90
3996;DHT22;2012;49.794;9.722;2023-02-02T02:52:50;5.90;99.90
3996;DHT22;2012;49.794;9.722;2023-02-02T02:55:23;5.90;99.90
3996;DHT22;2012;49.794;9.722;2023-02-02T02:58:03;5.90;99.90
3996;DHT22;2012;49.794;9.722;2023-02-02T03:03:23;5.90;99.90
3996;DHT22;2012;49.794;9.722;2023-02-02T03:08:42;5.90;99.90
3996;DHT22;2012;49.794;9.722;2023-02-02T03:11:12;5.90;99.90
3996;DHT22;2012;49.794;9.722;2023-02-02T03:13:41;5.90;99.90
3996;DHT22;2012;49.794;9.722;2023-02-02T03:16:09;5.90;99.90
3996;DHT22;2012;49.794;9.722;2023-02-02T03:18:36;5.90;99.90
3996;DHT22;2012;49.794;9.722;2023-02-02T03:21:04;5.90;99.90
3996;DHT22;2012;49.794;9.722;2023-02-02T03:23:31;5.90;99.90
3996;DHT22;2012;49.794;9.722;2023-02-02T03:25:58;5.90;99.90
3996;DHT22;2012;49.794;9.722;2023-02-02T03:28:26;5.90;99.90
3996;DHT22;2012;49.794;9.722;2023-02-02T03:30:53;5.90;99.90
3996;DHT22;2012;49.794;9.722;2023-02-02T03:33:21;5.90;99.90
3996;DHT22;2012;49.794;9.722;2023-02-02T03:35:48;5.90;99.90
3996;DHT22;2012;49.794;9.722;2023-02-02T03:38:15;5.90;99.90
3996;DHT22;2012;49.794;9.722;2023-02-02T03:40:42;5.90;99.90
3996;DHT22;2012;49.794;9.722;2023-02-02T03:43:09;5.90;99.90
3996;DHT22;2012;49.794;9.722;2023-02-02T03:45:35;6.00;99.90
3996;DHT22;2012;49.794;9.722;2023-02-02T03:48:03;6.00;99.90
3996;DHT22;2012;49.794;9.722;2023-02-02T03:50:31;6.00;99.90
3996;DHT22;2012;49.794;9.722;2023-02-02T03:52:58;6.00;99.90
3996;DHT22;2012;49.794;9.722;2023-02-02T03:55:25;5.90;99.90
3996;DHT22;2012;49.794;9.722;2023-02-02T03:57:52;5.90;99.90
3996;DHT22;2012;49.794;9.722;2023-02-02T04:00:19;5.90;99.90
3996;DHT22;2012;49.794;9.722;2023-02-02T04:02:45;5.90;99.90
3996;DHT22;2012;49.794;9.722;2023-02-02T04:05:12;5.90;99.90
3996;DHT22;2012;49.794;9.722;2023-02-02T04:07:39;5.90;99.90
3996;DHT22;2012;49.794;9.722;2023-02-02T04:10:06;5.90;99.90
3996;DHT22;2012;49.794;9.722;2023-02-02T04:12:33;5.90;99.90
3996;DHT22;2012;49.794;9.722;2023-02-02T04:14:59;5.90;99.90
3996;DHT22;2012;49.794;9.722;2023-02-02T04:17:26;5.90;99.90
3996;DHT22;2012;49.794;9.722;2023-02-02T04:19:53;5.90;99.90
3996;DHT22;2012;49.794;9.722;2023-02-02T04:22:24;5.90;99.90
3996;DHT22;2012;49.794;9.722;2023-02-02T04:24:51;5.90;99.90
3996;DHT22;2012;49.794;9.722;2023-02-02T04:27:18;5.90;99.90
3996;DHT22;2012;49.794;9.722;2023-02-02T04:29:45;5.90;99.90
3996;DHT22;2012;49.794;9.722;2023-02-02T04:32:14;6.00;99.90
3996;DHT22;2012;49.794;9.722;2023-02-02T04:34:42;5.90;99.90
3996;DHT22;2012;49.794;9.722;2023-02-02T04:37:09;5.90;99.90
3996;DHT22;2012;49.794;9.722;2023-02-02T04:39:36;6.00;99.90
3996;DHT22;2012;49.794;9.722;2023-02-02T04:42:03;6.00;99.90
3996;DHT22;2012;49.794;9.722;2023-02-02T04:44:30;6.00;99.90
3996;DHT22;2012;49.794;9.722;2023-02-02T04:46:57;6.00;99.90
3996;DHT22;2012;49.794;9.722;2023-02-02T04:49:23;6.00;99.90
3996;DHT22;2012;49.794;9.722;2023-02-02T04:51:50;6.00;99.90
3996;DHT22;2012;49.794;9.722;2023-02-02T04:54:17;6.00;99.90
3996;DHT22;2012;49.794;9.722;2023-02-02T04:56:44;6.00;99.90
3996;DHT22;2012;49.794;9.722;2023-02-02T04:59:10;6.00;99.90
3996;DHT22;2012;49.794;9.722;2023-02-02T05:01:38;6.00;99.90
3996;DHT22;2012;49.794;9.722;2023-02-02T05:04:04;6.00;99.90
3996;DHT22;2012;49.794;9.722;2023-02-02T05:06:31;6.00;99.90
3996;DHT22;2012;49.794;9.722;2023-02-02T05:08:58;6.00;99.90
3996;DHT22;2012;49.794;9.722;2023-02-02T05:11:26;6.10;99.90
3996;DHT22;2012;49.794;9.722;2023-02-02T05:13:53;6.10;99.90
3996;DHT22;2012;49.794;9.722;2023-02-02T05:16:21;6.10;99.90
3996;DHT22;2012;49.794;9.722;2023-02-02T05:18:54;6.10;99.90
3996;DHT22;2012;49.794;9.722;2023-02-02T05:21:22;6.10;99.90
3996;DHT22;2012;49.794;9.722;2023-02-02T05:23:49;6.10;99.90
3996;DHT22;2012;49.794;9.722;2023-02-02T05:26:21;6.20;99.90
3996;DHT22;2012;49.794;9.722;2023-02-02T05:28:48;6.10;99.90
3996;DHT22;2012;49.794;9.722;2023-02-02T05:31:15;6.10;99.90
3996;DHT22;2012;49.794;9.722;2023-02-02T05:33:42;6.10;99.90
3996;DHT22;2012;49.794;9.722;2023-02-02T05:36:09;6.10;99.90
3996;DHT22;2012;49.794;9.722;2023-02-02T05:38:36;6.10;99.90
3996;DHT22;2012;49.794;9.722;2023-02-02T05:41:03;6.20;99.90
3996;DHT22;2012;49.794;9.722;2023-02-02T05:43:30;6.20;99.90
3996;DHT22;2012;49.794;9.722;2023-02-02T05:45:58;6.10;99.90
3996;DHT22;2012;49.794;9.722;2023-02-02T05:48:25;6.10;99.90
3996;DHT22;2012;49.794;9.722;2023-02-02T05:50:59;6.20;99.90
3996;DHT22;2012;49.794;9.722;2023-02-02T05:53:32;6.10;99.90
3996;DHT22;2012;49.794;9.722;2023-02-02T05:55:59;6.20;99.90
3996;DHT22;2012;49.794;9.722;2023-02-02T05:58:26;6.10;99.90
3996;DHT22;2012;49.794;9.722;2023-02-02T06:00:54;6.20;99.90
3996;DHT22;2012;49.794;9.722;2023-02-02T06:03:22;6.10;99.90
3996;DHT22;2012;49.794;9.722;2023-02-02T06:05:49;6.10;99.90
3996;DHT22;2012;49.794;9.722;2023-02-02T06:08:16;6.10;99.90
3996;DHT22;2012;49.794;9.722;2023-02-02T06:10:42;6.20;99.90
3996;DHT22;2012;49.794;9.722;2023-02-02T06:13:09;6.10;99.90
3996;DHT22;2012;49.794;9.722;2023-02-02T06:15:37;6.40;99.90
3996;DHT22;2012;49.794;9.722;2023-02-02T06:18:04;6.20;99.90
3996;DHT22;2012;49.794;9.722;2023-02-02T06:20:32;6.20;99.90
3996;DHT22;2012;49.794;9.722;2023-02-02T06:22:59;6.30;99.90
3996;DHT22;2012;49.794;9.722;2023-02-02T06:25:26;6.20;99.90
3996;DHT22;2012;49.794;9.722;2023-02-02T06:27:57;6.20;99.90
3996;DHT22;2012;49.794;9.722;2023-02-02T06:30:24;6.20;99.90
3996;DHT22;2012;49.794;9.722;2023-02-02T06:32:51;6.20;99.90
3996;DHT22;2012;49.794;9.722;2023-02-02T06:35:18;6.20;99.90
3996;DHT22;2012;49.794;9.722;2023-02-02T06:37:45;6.20;99.90
3996;DHT22;2012;49.794;9.722;2023-02-02T06:40:12;6.20;99.90
3996;DHT22;2012;49.794;9.722;2023-02-02T06:42:39;6.20;99.90
3996;DHT22;2012;49.794;9.722;2023-02-02T06:45:06;6.10;99.90
3996;DHT22;2012;49.794;9.722;2023-02-02T06:47:33;6.20;99.90
3996;DHT22;2012;49.794;9.722;2023-02-02T06:50:00;6.10;99.90
3996;DHT22;2012;49.794;9.722;2023-02-02T06:52:27;6.20;99.90
3996;DHT22;2012;49.794;9.722;2023-02-02T06:54:53;6.10;99.90
3996;DHT22;2012;49.794;9.722;2023-02-02T06:57:20;6.10;99.90
3996;DHT22;2012;49.794;9.722;2023-02-02T06:59:47;6.10;99.90
3996;DHT22;2012;49.794;9.722;2023-02-02T07:02:14;6.30;99.90
3996;DHT22;2012;49.794;9.722;2023-02-02T07:04:40;6.20;99.90
3996;DHT22;2012;49.794;9.722;2023-02-02T07:07:07;6.20;99.90
3996;DHT22;2012;49.794;9.722;2023-02-02T07:09:34;6.20;99.90
3996;DHT22;2012;49.794;9.722;2023-02-02T07:12:01;6.20;99.90
3996;DHT22;2012;49.794;9.722;2023-02-02T07:14:28;6.20;99.90
3996;DHT22;2012;49.794;9.722;2023-02-02T07:16:54;6.20;99.90
3996;DHT22;2012;49.794;9.722;2023-02-02T07:19:21;6.20;99.90
3996;DHT22;2012;49.794;9.722;2023-02-02T07:21:48;6.20;99.90
3996;DHT22;2012;49.794;9.722;2023-02-02T07:24:15;6.20;99.90
3996;DHT22;2012;49.794;9.722;2023-02-02T07:26:42;6.20;99.90
3996;DHT22;2012;49.794;9.722;2023-02-02T07:29:11;6.20;99.90
3996;DHT22;2012;49.794;9.722;2023-02-02T07:31:39;6.20;99.90
3996;DHT22;2012;49.794;9.722;2023-02-02T07:34:07;6.20;99.90
3996;DHT22;2012;49.794;9.722;2023-02-02T07:36:34;6.20;99.90
3996;DHT22;2012;49.794;9.722;2023-02-02T07:39:02;6.20;99.90
3996;DHT22;2012;49.794;9.722;2023-02-02T07:41:32;6.20;99.90
3996;DHT22;2012;49.794;9.722;2023-02-02T07:43:59;6.20;99.90
3996;DHT22;2012;49.794;9.722;2023-02-02T07:46:25;6.20;99.90
3996;DHT22;2012;49.794;9.722;2023-02-02T07:48:53;6.20;99.90
3996;DHT22;2012;49.794;9.722;2023-02-02T07:51:24;6.20;99.90
3996;DHT22;2012;49.794;9.722;2023-02-02T07:53:52;6.20;99.90
3996;DHT22;2012;49.794;9.722;2023-02-02T07:56:21;6.30;99.90
3996;DHT22;2012;49.794;9.722;2023-02-02T07:58:50;6.30;99.90
3996;DHT22;2012;49.794;9.722;2023-02-02T08:01:17;6.30;99.90
3996;DHT22;2012;49.794;9.722;2023-02-02T08:03:46;6.30;99.90
3996;DHT22;2012;49.794;9.722;2023-02-02T08:08:45;6.40;99.90
3996;DHT22;2012;49.794;9.722;2023-02-02T08:11:13;6.40;99.90
3996;DHT22;2012;49.794;9.722;2023-02-02T08:13:41;6.40;99.90
3996;DHT22;2012;49.794;9.722;2023-02-02T08:16:09;6.40;99.90
3996;DHT22;2012;49.794;9.722;2023-02-02T08:18:37;6.40;99.90
3996;DHT22;2012;49.794;9.722;2023-02-02T08:21:05;6.40;99.90
3996;DHT22;2012;49.794;9.722;2023-02-02T08:23:34;6.40;99.90
3996;DHT22;2012;49.794;9.722;2023-02-02T08:26:17;6.40;99.90
3996;DHT22;2012;49.794;9.722;2023-02-02T08:28:47;6.50;99.90
3996;DHT22;2012;49.794;9.722;2023-02-02T08:31:20;6.50;99.90
3996;DHT22;2012;49.794;9.722;2023-02-02T08:33:47;6.50;99.90
3996;DHT22;2012;49.794;9.722;2023-02-02T08:36:17;6.50;99.90
3996;DHT22;2012;49.794;9.722;2023-02-02T08:38:44;6.50;99.90
3996;DHT22;2012;49.794;9.722;2023-02-02T08:41:13;6.50;99.90
3996;DHT22;2012;49.794;9.722;2023-02-02T08:43:41;6.50;99.90
3996;DHT22;2012;49.794;9.722;2023-02-02T08:46:13;6.50;99.90
3996;DHT22;2012;49.794;9.722;2023-02-02T08:48:40;6.50;99.90
3996;DHT22;2012;49.794;9.722;2023-02-02T08:51:10;6.50;99.90
3996;DHT22;2012;49.794;9.722;2023-02-02T08:53:37;6.50;99.90
3996;DHT22;2012;49.794;9.722;2023-02-02T08:56:15;6.50;99.90
3996;DHT22;2012;49.794;9.722;2023-02-02T08:58:50;6.50;99.90
3996;DHT22;2012;49.794;9.722;2023-02-02T09:01:23;6.50;99.90
3996;DHT22;2012;49.794;9.722;2023-02-02T09:03:54;6.60;99.90
3996;DHT22;2012;49.794;9.722;2023-02-02T09:06:26;6.50;99.90
3996;DHT22;2012;49.794;9.722;2023-02-02T09:08:54;6.60;99.90
3996;DHT22;2012;49.794;9.722;2023-02-02T09:11:21;6.60;99.90
3996;DHT22;2012;49.794;9.722;2023-02-02T09:13:52;6.60;99.90
3996;DHT22;2012;49.794;9.722;2023-02-02T09:16:19;6.60;99.90
3996;DHT22;2012;49.794;9.722;2023-02-02T09:18:46;6.60;99.90
3996;DHT22;2012;49.794;9.722;2023-02-02T09:21:15;6.60;99.90
3996;DHT22;2012;49.794;9.722;2023-02-02T09:23:42;6.60;99.90
3996;DHT22;2012;49.794;9.722;2023-02-02T09:26:13;6.60;99.90
3996;DHT22;2012;49.794;9.722;2023-02-02T09:28:46;6.70;99.90
3996;DHT22;2012;49.794;9.722;2023-02-02T09:31:14;6.70;99.90
3996;DHT22;2012;49.794;9.722;2023-02-02T09:33:41;6.70;99.90
3996;DHT22;2012;49.794;9.722;2023-02-02T09:36:14;6.70;99.90
3996;DHT22;2012;49.794;9.722;2023-02-02T09:38:41;6.80;99.90
3996;DHT22;2012;49.794;9.722;2023-02-02T09:49:27;6.80;99.90
3996;DHT22;2012;49.794;9.722;2023-02-02T09:52:02;6.90;99.90
3996;DHT22;2012;49.794;9.722;2023-02-02T09:54:40;6.90;99.90
3996;DHT22;2012;49.794;9.722;2023-02-02T09:57:14;6.90;99.90
3996;DHT22;2012;49.794;9.722;2023-02-02T09:59:44;6.80;99.90
3996;DHT22;2012;49.794;9.722;2023-02-02T10:02:26;6.80;99.90
3996;DHT22;2012;49.794;9.722;2023-02-02T10:04:59;6.90;99.90
3996;DHT22;2012;49.794;9.722;2023-02-02T10:07:37;6.90;99.90
3996;DHT22;2012;49.794;9.722;2023-02-02T10:10:28;6.90;99.90
3996;DHT22;2012;49.794;9.722;2023-02-02T10:13:09;6.90;99.90
3996;DHT22;2012;49.794;9.722;2023-02-02T10:18:44;6.90;99.90
3996;DHT22;2012;49.794;9.722;2023-02-02T10:24:21;7.00;99.90
3996;DHT22;2012;49.794;9.722;2023-02-02T10:26:57;7.00;99.90
3996;DHT22;2012;49.794;9.722;2023-02-02T10:32:22;7.00;99.90
3996;DHT22;2012;49.794;9.722;2023-02-02T10:45:50;7.10;99.90
3996;DHT22;2012;49.794;9.722;2023-02-02T10:48:28;7.10;99.90
3996;DHT22;2012;49.794;9.722;2023-02-02T10:51:00;7.10;99.90
3996;DHT22;2012;49.794;9.722;2023-02-02T10:53:29;7.10;99.90
3996;DHT22;2012;49.794;9.722;2023-02-02T10:56:08;7.10;99.90
3996;DHT22;2012;49.794;9.722;2023-02-02T11:01:23;7.10;99.90
3996;DHT22;2012;49.794;9.722;2023-02-02T11:03:50;7.10;99.90
3996;DHT22;2012;49.794;9.722;2023-02-02T11:06:36;7.10;99.90
3996;DHT22;2012;49.794;9.722;2023-02-02T11:09:39;7.10;99.90
3996;DHT22;2012;49.794;9.722;2023-02-02T11:12:17;7.10;99.90
3996;DHT22;2012;49.794;9.722;2023-02-02T11:14:50;7.10;99.90
3996;DHT22;2012;49.794;9.722;2023-02-02T11:17:22;7.10;99.90
3996;DHT22;2012;49.794;9.722;2023-02-02T11:19:50;7.10;99.90
3996;DHT22;2012;49.794;9.722;2023-02-02T11:22:24;7.20;99.90
3996;DHT22;2012;49.794;9.722;2023-02-02T11:24:52;7.20;99.90
3996;DHT22;2012;49.794;9.722;2023-02-02T11:27:22;7.20;99.90
3996;DHT22;2012;49.794;9.722;2023-02-02T11:29:54;7.20;99.90
3996;DHT22;2012;49.794;9.722;2023-02-02T11:32:30;7.20;99.90
3996;DHT22;2012;49.794;9.722;2023-02-02T11:35:12;7.20;99.90
3996;DHT22;2012;49.794;9.722;2023-02-02T11:37:57;7.20;99.90
3996;DHT22;2012;49.794;9.722;2023-02-02T11:40:30;7.20;99.90
3996;DHT22;2012;49.794;9.722;2023-02-02T11:43:00;7.30;99.90
3996;DHT22;2012;49.794;9.722;2023-02-02T11:45:40;7.30;99.90
3996;DHT22;2012;49.794;9.722;2023-02-02T11:48:19;7.30;99.90
3996;DHT22;2012;49.794;9.722;2023-02-02T11:50:51;7.30;99.90
3996;DHT22;2012;49.794;9.722;2023-02-02T11:56:09;7.40;99.90
3996;DHT22;2012;49.794;9.722;2023-02-02T11:58:49;7.40;99.90
3996;DHT22;2012;49.794;9.722;2023-02-02T12:01:28;7.40;99.90
3996;DHT22;2012;49.794;9.722;2023-02-02T12:03:57;7.40;99.90
3996;DHT22;2012;49.794;9.722;2023-02-02T12:06:36;7.40;99.90
3996;DHT22;2012;49.794;9.722;2023-02-02T12:09:13;7.40;99.90
3996;DHT22;2012;49.794;9.722;2023-02-02T12:17:46;7.40;99.90
3996;DHT22;2012;49.794;9.722;2023-02-02T12:35:03;7.50;99.90
3996;DHT22;2012;49.794;9.722;2023-02-02T12:40:02;7.60;99.90
3996;DHT22;2012;49.794;9.722;2023-02-02T12:42:43;7.60;99.90
3996;DHT22;2012;49.794;9.722;2023-02-02T12:56:25;7.50;99.90
3996;DHT22;2012;49.794;9.722;2023-02-02T13:02:26;7.50;99.90
3996;DHT22;2012;49.794;9.722;2023-02-02T13:07:59;7.40;99.90
3996;DHT22;2012;49.794;9.722;2023-02-02T13:10:35;7.40;99.90
3996;DHT22;2012;49.794;9.722;2023-02-02T13:13:13;7.40;99.90
3996;DHT22;2012;49.794;9.722;2023-02-02T13:15:45;7.40;99.90
3996;DHT22;2012;49.794;9.722;2023-02-02T13:18:18;7.40;99.90
3996;DHT22;2012;49.794;9.722;2023-02-02T13:21:00;7.40;99.90
3996;DHT22;2012;49.794;9.722;2023-02-02T13:23:31;7.40;99.90
3996;DHT22;2012;49.794;9.722;2023-02-02T13:26:03;7.40;99.90
3996;DHT22;2012;49.794;9.722;2023-02-02T13:31:24;7.40;99.90
3996;DHT22;2012;49.794;9.722;2023-02-02T13:34:20;7.40;99.90
3996;DHT22;2012;49.794;9.722;2023-02-02T13:36:55;7.40;99.90
3996;DHT22;2012;49.794;9.722;2023-02-02T13:39:31;7.40;99.90
3996;DHT22;2012;49.794;9.722;2023-02-02T13:42:00;7.40;99.90
3996;DHT22;2012;49.794;9.722;2023-02-02T13:44:34;7.40;99.90
3996;DHT22;2012;49.794;9.722;2023-02-02T13:47:18;7.40;99.90
3996;DHT22;2012;49.794;9.722;2023-02-02T13:49:51;7.40;99.90
3996;DHT22;2012;49.794;9.722;2023-02-02T13:52:44;7.50;99.90
3996;DHT22;2012;49.794;9.722;2023-02-02T13:55:33;7.40;99.90
3996;DHT22;2012;49.794;9.722;2023-02-02T14:01:01;7.40;99.90
3996;DHT22;2012;49.794;9.722;2023-02-02T14:03:42;7.40;99.90
3996;DHT22;2012;49.794;9.722;2023-02-02T14:11:20;7.40;99.90
3996;DHT22;2012;49.794;9.722;2023-02-02T14:13:49;7.50;99.90
3996;DHT22;2012;49.794;9.722;2023-02-02T14:19:03;7.40;99.90
3996;DHT22;2012;49.794;9.722;2023-02-02T14:34:57;7.40;99.90
3996;DHT22;2012;49.794;9.722;2023-02-02T14:45:38;7.30;99.90
3996;DHT22;2012;49.794;9.722;2023-02-02T14:58:37;7.30;99.90
3996;DHT22;2012;49.794;9.722;2023-02-02T15:03:55;7.30;99.90
3996;DHT22;2012;49.794;9.722;2023-02-02T15:06:38;7.30;99.90
3996;DHT22;2012;49.794;9.722;2023-02-02T15:09:35;7.30;99.90
3996;DHT22;2012;49.794;9.722;2023-02-02T15:25:15;7.30;99.90
3996;DHT22;2012;49.794;9.722;2023-02-02T15:27:53;7.30;99.90
3996;DHT22;2012;49.794;9.722;2023-02-02T15:30:23;7.20;99.90
3996;DHT22;2012;49.794;9.722;2023-02-02T15:32:52;7.20;99.90
3996;DHT22;2012;49.794;9.722;2023-02-02T15:35:22;7.20;99.90
3996;DHT22;2012;49.794;9.722;2023-02-02T15:37:59;7.20;99.90
3996;DHT22;2012;49.794;9.722;2023-02-02T15:40:28;7.20;99.90
3996;DHT22;2012;49.794;9.722;2023-02-02T15:43:01;7.20;99.90
3996;DHT22;2012;49.794;9.722;2023-02-02T15:48:21;7.20;99.90
3996;DHT22;2012;49.794;9.722;2023-02-02T15:50:51;7.20;99.90
3996;DHT22;2012;49.794;9.722;2023-02-02T15:53:26;7.20;99.90
3996;DHT22;2012;49.794;9.722;2023-02-02T15:55:54;7.20;99.90
3996;DHT22;2012;49.794;9.722;2023-02-02T16:01:01;7.20;99.90
3996;DHT22;2012;49.794;9.722;2023-02-02T16:03:36;7.20;99.90
3996;DHT22;2012;49.794;9.722;2023-02-02T16:06:05;7.20;99.90
3996;DHT22;2012;49.794;9.722;2023-02-02T16:08:35;7.10;99.90
3996;DHT22;2012;49.794;9.722;2023-02-02T16:13:35;7.10;99.90
3996;DHT22;2012;49.794;9.722;2023-02-02T16:16:05;7.10;99.90
3996;DHT22;2012;49.794;9.722;2023-02-02T16:18:34;7.10;99.90
3996;DHT22;2012;49.794;9.722;2023-02-02T16:21:08;7.10;99.90
3996;DHT22;2012;49.794;9.722;2023-02-02T16:23:37;7.10;99.90
3996;DHT22;2012;49.794;9.722;2023-02-02T16:26:05;7.10;99.90
3996;DHT22;2012;49.794;9.722;2023-02-02T16:28:33;7.10;99.90
3996;DHT22;2012;49.794;9.722;2023-02-02T16:31:01;7.10;99.90
3996;DHT22;2012;49.794;9.722;2023-02-02T16:33:35;7.10;99.90
3996;DHT22;2012;49.794;9.722;2023-02-02T16:36:23;7.10;99.90
3996;DHT22;2012;49.794;9.722;2023-02-02T16:38:53;7.10;99.90
3996;DHT22;2012;49.794;9.722;2023-02-02T16:41:34;7.00;99.90
3996;DHT22;2012;49.794;9.722;2023-02-02T16:44:40;7.10;99.90
3996;DHT22;2012;49.794;9.722;2023-02-02T16:47:38;7.00;99.90
3996;DHT22;2012;49.794;9.722;2023-02-02T16:50:24;7.00;99.90
3996;DHT22;2012;49.794;9.722;2023-02-02T16:52:59;7.00;99.90
3996;DHT22;2012;49.794;9.722;2023-02-02T16:55:28;7.00;99.90
3996;DHT22;2012;49.794;9.722;2023-02-02T16:58:17;7.00;99.90
3996;DHT22;2012;49.794;9.722;2023-02-02T17:01:04;7.00;99.90
3996;DHT22;2012;49.794;9.722;2023-02-02T17:04:00;7.00;99.90
3996;DHT22;2012;49.794;9.722;2023-02-02T17:06:30;7.10;99.90
3996;DHT22;2012;49.794;9.722;2023-02-02T17:09:31;7.00;99.90
3996;DHT22;2012;49.794;9.722;2023-02-02T17:12:03;7.10;99.90
3996;DHT22;2012;49.794;9.722;2023-02-02T17:14:35;7.00;99.90
3996;DHT22;2012;49.794;9.722;2023-02-02T17:17:04;7.00;99.90
3996;DHT22;2012;49.794;9.722;2023-02-02T17:19:31;7.00;99.90
3996;DHT22;2012;49.794;9.722;2023-02-02T17:22:00;7.10;99.90
3996;DHT22;2012;49.794;9.722;2023-02-02T17:24:28;7.10;99.90
3996;DHT22;2012;49.794;9.722;2023-02-02T17:26:55;7.10;99.90
3996;DHT22;2012;49.794;9.722;2023-02-02T17:29:22;7.10;99.90
3996;DHT22;2012;49.794;9.722;2023-02-02T17:31:48;7.10;99.90
3996;DHT22;2012;49.794;9.722;2023-02-02T17:34:17;7.10;99.90
3996;DHT22;2012;49.794;9.722;2023-02-02T17:36:44;7.10;99.90
3996;DHT22;2012;49.794;9.722;2023-02-02T17:39:10;7.10;99.90
3996;DHT22;2012;49.794;9.722;2023-02-02T17:41:37;7.10;99.90
3996;DHT22;2012;49.794;9.722;2023-02-02T17:44:04;7.10;99.90
3996;DHT22;2012;49.794;9.722;2023-02-02T17:46:32;7.10;99.90
3996;DHT22;2012;49.794;9.722;2023-02-02T17:49:00;7.10;99.90
3996;DHT22;2012;49.794;9.722;2023-02-02T17:51:27;7.10;99.90
3996;DHT22;2012;49.794;9.722;2023-02-02T17:53:55;7.10;99.90
3996;DHT22;2012;49.794;9.722;2023-02-02T17:56:25;7.10;99.90
3996;DHT22;2012;49.794;9.722;2023-02-02T17:58:53;7.10;99.90
3996;DHT22;2012;49.794;9.722;2023-02-02T18:01:19;7.20;99.90
3996;DHT22;2012;49.794;9.722;2023-02-02T18:03:46;7.20;99.90
3996;DHT22;2012;49.794;9.722;2023-02-02T18:06:13;7.20;99.90
3996;DHT22;2012;49.794;9.722;2023-02-02T18:08:40;7.20;99.90
3996;DHT22;2012;49.794;9.722;2023-02-02T18:11:10;7.20;99.90
3996;DHT22;2012;49.794;9.722;2023-02-02T18:13:37;7.20;99.90
3996;DHT22;2012;49.794;9.722;2023-02-02T18:16:05;7.20;99.90
3996;DHT22;2012;49.794;9.722;2023-02-02T18:18:32;7.20;99.90
3996;DHT22;2012;49.794;9.722;2023-02-02T18:20:59;7.30;99.90
3996;DHT22;2012;49.794;9.722;2023-02-02T18:23:26;7.30;99.90
3996;DHT22;2012;49.794;9.722;2023-02-02T18:25:53;7.30;99.90
3996;DHT22;2012;49.794;9.722;2023-02-02T18:28:20;7.30;99.90
3996;DHT22;2012;49.794;9.722;2023-02-02T18:30:47;7.30;99.90
3996;DHT22;2012;49.794;9.722;2023-02-02T18:33:14;7.30;99.90
3996;DHT22;2012;49.794;9.722;2023-02-02T18:35:46;7.30;99.90
3996;DHT22;2012;49.794;9.722;2023-02-02T18:38:13;7.20;99.90
3996;DHT22;2012;49.794;9.722;2023-02-02T18:40:40;7.30;99.90
3996;DHT22;2012;49.794;9.722;2023-02-02T18:43:07;7.30;99.90
3996;DHT22;2012;49.794;9.722;2023-02-02T18:45:34;7.30;99.90
3996;DHT22;2012;49.794;9.722;2023-02-02T18:48:02;7.40;99.90
3996;DHT22;2012;49.794;9.722;2023-02-02T18:50:28;7.30;99.90
3996;DHT22;2012;49.794;9.722;2023-02-02T18:52:55;7.30;99.90
3996;DHT22;2012;49.794;9.722;2023-02-02T18:55:22;7.30;99.90
3996;DHT22;2012;49.794;9.722;2023-02-02T18:57:49;7.30;99.90
3996;DHT22;2012;49.794;9.722;2023-02-02T19:00:16;7.30;99.90
3996;DHT22;2012;49.794;9.722;2023-02-02T19:02:43;7.20;99.90
3996;DHT22;2012;49.794;9.722;2023-02-02T19:05:10;7.20;99.90
3996;DHT22;2012;49.794;9.722;2023-02-02T19:07:55;7.20;99.90
3996;DHT22;2012;49.794;9.722;2023-02-02T19:10:25;7.20;99.90
3996;DHT22;2012;49.794;9.722;2023-02-02T19:13:15;7.20;99.90
3996;DHT22;2012;49.794;9.722;2023-02-02T19:15:47;7.20;99.90
3996;DHT22;2012;49.794;9.722;2023-02-02T19:18:20;7.20;99.90
3996;DHT22;2012;49.794;9.722;2023-02-02T19:20:49;7.20;99.90
3996;DHT22;2012;49.794;9.722;2023-02-02T19:23:18;7.10;99.90
3996;DHT22;2012;49.794;9.722;2023-02-02T19:25:51;7.20;99.90
3996;DHT22;2012;49.794;9.722;2023-02-02T19:28:28;7.10;99.90
3996;DHT22;2012;49.794;9.722;2023-02-02T19:30:58;7.20;99.90